sensor_id;sensor_type;location;lat;lon;timestamp;pressure;altitude;pressure_sealevel;temperature;humidity
79114;BME280;68521;47.822;13.216;2023-03-13T00:00:08;93358.97;;;6.74;70.93
79114;BME280;68521;47.822;13.216;2023-03-13T00:00:56;93355.00;;;6.72;70.85
79114;BME280;68521;47.822;13.216;2023-03-13T00:01:46;93350.22;;;6.69;71.00
79114;BME280;68521;47.822;13.216;2023-03-13T00:02:31;93356.47;;;6.68;70.94
79114;BME280;68521;47.822;13.216;2023-03-13T00:03:17;93349.66;;;6.67;71.07
79114;BME280;68521;47.822;13.216;2023-03-13T00:04:02;93349.06;;;6.65;70.99
79114;BME280;68521;47.822;13.216;2023-03-13T00:04:48;93350.13;;;6.64;71.29
79114;BME280;68521;47.822;13.216;2023-03-13T00:05:34;93345.91;;;6.63;71.13
79114;BME280;68521;47.822;13.216;2023-03-13T00:06:21;93346.34;;;6.60;70.96
79114;BME280;68521;47.822;13.216;2023-03-13T00:07:07;93342.97;;;6.59;71.20
79114;BME280;68521;47.822;13.216;2023-03-13T00:07:54;93348.94;;;6.60;71.29
79114;BME280;68521;47.822;13.216;2023-03-13T00:08:39;93337.97;;;6.58;71.10
79114;BME280;68521;47.822;13.216;2023-03-13T00:09:25;93348.41;;;6.58;71.32
79114;BME280;68521;47.822;13.216;2023-03-13T00:10:11;93350.41;;;6.56;71.30
79114;BME280;68521;47.822;13.216;2023-03-13T00:10:56;93351.44;;;6.55;71.54
79114;BME280;68521;47.822;13.216;2023-03-13T00:11:43;93349.28;;;6.52;71.70
79114;BME280;68521;47.822;13.216;2023-03-13T00:12:29;93348.69;;;6.50;72.12
79114;BME280;68521;47.822;13.216;2023-03-13T00:13:16;93353.38;;;6.48;71.81
79114;BME280;68521;47.822;13.216;2023-03-13T00:14:03;93344.41;;;6.44;71.49
79114;BME280;68521;47.822;13.216;2023-03-13T00:14:49;93346.22;;;6.43;71.49
79114;BME280;68521;47.822;13.216;2023-03-13T00:15:34;93341.44;;;6.40;71.57
79114;BME280;68521;47.822;13.216;2023-03-13T00:16:23;93341.09;;;6.36;71.68
79114;BME280;68521;47.822;13.216;2023-03-13T00:17:09;93346.72;;;6.33;71.62
79114;BME280;68521;47.822;13.216;2023-03-13T00:17:54;93341.97;;;6.30;71.96
79114;BME280;68521;47.822;13.216;2023-03-13T00:18:47;93341.06;;;6.25;72.59
79114;BME280;68521;47.822;13.216;2023-03-13T00:19:33;93340.47;;;6.23;72.35
79114;BME280;68521;47.822;13.216;2023-03-13T00:20:18;93345.13;;;6.21;72.39
79114;BME280;68521;47.822;13.216;2023-03-13T00:21:07;93339.00;;;6.15;72.84
79114;BME280;68521;47.822;13.216;2023-03-13T00:21:53;93337.06;;;6.11;73.06
79114;BME280;68521;47.822;13.216;2023-03-13T00:22:39;93335.91;;;6.07;73.15
79114;BME280;68521;47.822;13.216;2023-03-13T00:23:24;93333.19;;;6.02;73.30
79114;BME280;68521;47.822;13.216;2023-03-13T00:24:10;93333.59;;;5.99;73.19
79114;BME280;68521;47.822;13.216;2023-03-13T00:24:56;93335.84;;;5.95;73.29
79114;BME280;68521;47.822;13.216;2023-03-13T00:25:42;93337.75;;;5.88;73.73
79114;BME280;68521;47.822;13.216;2023-03-13T00:26:28;93333.53;;;5.87;73.92
79114;BME280;68521;47.822;13.216;2023-03-13T00:27:14;93335.19;;;5.81;74.46
79114;BME280;68521;47.822;13.216;2023-03-13T00:28:02;93333.03;;;5.78;74.18
79114;BME280;68521;47.822;13.216;2023-03-13T00:28:47;93335.63;;;5.78;74.10
79114;BME280;68521;47.822;13.216;2023-03-13T00:29:33;93336.84;;;5.76;74.45
79114;BME280;68521;47.822;13.216;2023-03-13T00:30:18;93326.09;;;5.72;75.11
79114;BME280;68521;47.822;13.216;2023-03-13T00:31:09;93326.63;;;5.63;75.12
79114;BME280;68521;47.822;13.216;2023-03-13T00:31:54;93327.28;;;5.58;74.79
79114;BME280;68521;47.822;13.216;2023-03-13T00:32:43;93322.06;;;5.58;74.52
79114;BME280;68521;47.822;13.216;2023-03-13T00:33:31;93324.88;;;5.57;74.23
79114;BME280;68521;47.822;13.216;2023-03-13T00:34:17;93319.69;;;5.57;73.97
79114;BME280;68521;47.822;13.216;2023-03-13T00:35:02;93321.72;;;5.54;73.88
79114;BME280;68521;47.822;13.216;2023-03-13T00:35:48;93320.13;;;5.53;74.12
79114;BME280;68521;47.822;13.216;2023-03-13T00:36:34;93323.75;;;5.52;73.98
79114;BME280;68521;47.822;13.216;2023-03-13T00:37:19;93320.78;;;5.49;74.07
79114;BME280;68521;47.822;13.216;2023-03-13T00:38:05;93317.81;;;5.45;74.29
79114;BME280;68521;47.822;13.216;2023-03-13T00:38:51;93320.66;;;5.44;74.57
79114;BME280;68521;47.822;13.216;2023-03-13T00:39:37;93314.06;;;5.41;74.54
79114;BME280;68521;47.822;13.216;2023-03-13T00:40:22;93307.25;;;5.40;74.71
79114;BME280;68521;47.822;13.216;2023-03-13T00:41:15;93318.91;;;5.38;74.65
79114;BME280;68521;47.822;13.216;2023-03-13T00:42:00;93309.16;;;5.33;75.40
79114;BME280;68521;47.822;13.216;2023-03-13T00:42:47;93311.97;;;5.32;75.49
79114;BME280;68521;47.822;13.216;2023-03-13T00:43:33;93304.81;;;5.27;75.89
79114;BME280;68521;47.822;13.216;2023-03-13T00:44:19;93302.44;;;5.26;75.94
79114;BME280;68521;47.822;13.216;2023-03-13T00:45:05;93306.84;;;5.25;75.96
79114;BME280;68521;47.822;13.216;2023-03-13T00:45:50;93305.47;;;5.23;75.61
79114;BME280;68521;47.822;13.216;2023-03-13T00:46:36;93308.28;;;5.21;75.47
79114;BME280;68521;47.822;13.216;2023-03-13T00:47:21;93299.88;;;5.19;75.25
79114;BME280;68521;47.822;13.216;2023-03-13T00:48:06;93295.72;;;5.18;75.50
79114;BME280;68521;47.822;13.216;2023-03-13T00:48:52;93305.38;;;5.11;75.63
79114;BME280;68521;47.822;13.216;2023-03-13T00:49:37;93298.59;;;5.10;75.91
79114;BME280;68521;47.822;13.216;2023-03-13T00:50:23;93300.59;;;5.08;76.06
79114;BME280;68521;47.822;13.216;2023-03-13T00:51:09;93304.25;;;5.07;76.48
79114;BME280;68521;47.822;13.216;2023-03-13T00:51:54;93299.25;;;5.05;76.56
79114;BME280;68521;47.822;13.216;2023-03-13T00:52:40;93300.25;;;5.04;76.57
79114;BME280;68521;47.822;13.216;2023-03-13T00:53:25;93294.47;;;5.02;76.80
79114;BME280;68521;47.822;13.216;2023-03-13T00:54:11;93297.84;;;5.03;77.10
79114;BME280;68521;47.822;13.216;2023-03-13T00:54:56;93296.28;;;5.02;76.74
79114;BME280;68521;47.822;13.216;2023-03-13T00:56:37;93298.50;;;4.98;76.59
79114;BME280;68521;47.822;13.216;2023-03-13T00:57:22;93294.31;;;4.97;76.23
79114;BME280;68521;47.822;13.216;2023-03-13T00:58:08;93293.97;;;4.94;76.09
79114;BME280;68521;47.822;13.216;2023-03-13T00:58:53;93295.75;;;4.93;75.85
79114;BME280;68521;47.822;13.216;2023-03-13T00:59:38;93290.00;;;4.91;75.85
79114;BME280;68521;47.822;13.216;2023-03-13T01:00:24;93291.22;;;4.89;76.11
79114;BME280;68521;47.822;13.216;2023-03-13T01:02:00;93286.44;;;4.86;75.65
79114;BME280;68521;47.822;13.216;2023-03-13T01:02:46;93284.84;;;4.85;76.08
79114;BME280;68521;47.822;13.216;2023-03-13T01:03:31;93288.66;;;4.82;76.17
79114;BME280;68521;47.822;13.216;2023-03-13T01:04:16;93279.88;;;4.83;76.14
79114;BME280;68521;47.822;13.216;2023-03-13T01:05:02;93287.09;;;4.81;76.56
79114;BME280;68521;47.822;13.216;2023-03-13T01:05:57;93290.91;;;4.79;77.11
79114;BME280;68521;47.822;13.216;2023-03-13T01:06:43;93283.91;;;4.79;76.84
79114;BME280;68521;47.822;13.216;2023-03-13T01:07:29;93277.91;;;4.79;77.30
79114;BME280;68521;47.822;13.216;2023-03-13T01:08:14;93275.53;;;4.77;77.65
79114;BME280;68521;47.822;13.216;2023-03-13T01:09:00;93280.50;;;4.79;77.66
79114;BME280;68521;47.822;13.216;2023-03-13T01:09:45;93276.31;;;4.78;77.65
79114;BME280;68521;47.822;13.216;2023-03-13T01:10:31;93272.72;;;4.79;77.74
79114;BME280;68521;47.822;13.216;2023-03-13T01:11:18;93270.13;;;4.79;77.94
79114;BME280;68521;47.822;13.216;2023-03-13T01:12:05;93276.31;;;4.78;77.59
79114;BME280;68521;47.822;13.216;2023-03-13T01:12:50;93270.13;;;4.79;77.37
79114;BME280;68521;47.822;13.216;2023-03-13T01:13:35;93271.13;;;4.78;77.19
79114;BME280;68521;47.822;13.216;2023-03-13T01:14:21;93268.97;;;4.75;77.07
79114;BME280;68521;47.822;13.216;2023-03-13T01:15:07;93270.97;;;4.73;77.28
79114;BME280;68521;47.822;13.216;2023-03-13T01:15:52;93270.97;;;4.73;77.04
79114;BME280;68521;47.822;13.216;2023-03-13T01:16:38;93265.22;;;4.71;77.27
79114;BME280;68521;47.822;13.216;2023-03-13T01:17:23;93263.63;;;4.69;77.36
79114;BME280;68521;47.822;13.216;2023-03-13T01:18:09;93270.81;;;4.67;77.42
79114;BME280;68521;47.822;13.216;2023-03-13T01:18:56;93270.25;;;4.65;77.75
79114;BME280;68521;47.822;13.216;2023-03-13T01:19:43;93265.84;;;4.66;78.14
79114;BME280;68521;47.822;13.216;2023-03-13T01:20:29;93271.81;;;4.66;78.36
79114;BME280;68521;47.822;13.216;2023-03-13T01:21:16;93270.25;;;4.65;78.38
79114;BME280;68521;47.822;13.216;2023-03-13T01:22:03;93266.88;;;4.65;78.43
79114;BME280;68521;47.822;13.216;2023-03-13T01:22:49;93258.84;;;4.66;78.24
79114;BME280;68521;47.822;13.216;2023-03-13T01:23:34;93257.28;;;4.65;78.39
79114;BME280;68521;47.822;13.216;2023-03-13T01:24:19;93256.25;;;4.66;78.25
79114;BME280;68521;47.822;13.216;2023-03-13T01:25:06;93255.66;;;4.64;78.31
79114;BME280;68521;47.822;13.216;2023-03-13T01:25:53;93249.88;;;4.62;78.42
79114;BME280;68521;47.822;13.216;2023-03-13T01:26:39;93255.09;;;4.62;78.13
79114;BME280;68521;47.822;13.216;2023-03-13T01:27:25;93253.50;;;4.61;77.81
79114;BME280;68521;47.822;13.216;2023-03-13T01:28:10;93253.72;;;4.60;77.79
79114;BME280;68521;47.822;13.216;2023-03-13T01:28:56;93251.31;;;4.58;77.65
79114;BME280;68521;47.822;13.216;2023-03-13T01:29:41;93242.94;;;4.56;77.56
79114;BME280;68521;47.822;13.216;2023-03-13T01:30:27;93250.16;;;4.54;77.60
79114;BME280;68521;47.822;13.216;2023-03-13T01:31:23;93245.38;;;4.51;77.61
79114;BME280;68521;47.822;13.216;2023-03-13T01:32:09;93241.19;;;4.50;77.59
79114;BME280;68521;47.822;13.216;2023-03-13T01:32:54;93246.63;;;4.49;77.86
79114;BME280;68521;47.822;13.216;2023-03-13T01:33:40;93239.84;;;4.48;78.11
79114;BME280;68521;47.822;13.216;2023-03-13T01:34:26;93240.03;;;4.46;77.88
79114;BME280;68521;47.822;13.216;2023-03-13T01:35:11;93240.03;;;4.46;78.51
79114;BME280;68521;47.822;13.216;2023-03-13T01:36:00;93241.03;;;4.45;78.09
79114;BME280;68521;47.822;13.216;2023-03-13T01:36:46;93241.84;;;4.46;78.21
79114;BME280;68521;47.822;13.216;2023-03-13T01:37:34;93246.47;;;4.44;78.69
79114;BME280;68521;47.822;13.216;2023-03-13T01:38:19;93233.69;;;4.42;78.96
79114;BME280;68521;47.822;13.216;2023-03-13T01:39:05;93231.09;;;4.42;78.88
79114;BME280;68521;47.822;13.216;2023-03-13T01:39:51;93240.47;;;4.43;79.24
79114;BME280;68521;47.822;13.216;2023-03-13T01:40:54;93227.09;;;4.40;79.08
79114;BME280;68521;47.822;13.216;2023-03-13T01:41:39;93229.69;;;4.40;78.85
79114;BME280;68521;47.822;13.216;2023-03-13T01:42:24;93229.13;;;4.38;78.45
79114;BME280;68521;47.822;13.216;2023-03-13T01:43:22;93234.53;;;4.36;79.14
79114;BME280;68521;47.822;13.216;2023-03-13T01:44:21;93236.56;;;4.34;79.54
79114;BME280;68521;47.822;13.216;2023-03-13T01:46:30;93230.19;;;4.30;79.64
79114;BME280;68521;47.822;13.216;2023-03-13T01:47:16;93230.00;;;4.32;79.50
79114;BME280;68521;47.822;13.216;2023-03-13T01:48:03;93216.22;;;4.31;79.54
79114;BME280;68521;47.822;13.216;2023-03-13T01:49:10;93221.75;;;4.35;79.63
79114;BME280;68521;47.822;13.216;2023-03-13T01:49:54;93223.00;;;4.32;79.53
79114;BME280;68521;47.822;13.216;2023-03-13T01:50:39;93222.19;;;4.32;79.58
79114;BME280;68521;47.822;13.216;2023-03-13T01:51:31;93224.59;;;4.33;79.51
79114;BME280;68521;47.822;13.216;2023-03-13T01:52:25;93216.22;;;4.31;79.62
79114;BME280;68521;47.822;13.216;2023-03-13T01:53:12;93217.81;;;4.32;79.50
79114;BME280;68521;47.822;13.216;2023-03-13T01:55:11;93224.00;;;4.31;80.15
79114;BME280;68521;47.822;13.216;2023-03-13T01:55:59;93224.00;;;4.31;79.82
79114;BME280;68521;47.822;13.216;2023-03-13T01:57:05;93220.84;;;4.29;80.01
79114;BME280;68521;47.822;13.216;2023-03-13T01:57:53;93220.84;;;4.29;79.60
79114;BME280;68521;47.822;13.216;2023-03-13T01:58:39;93223.44;;;4.29;79.74
79114;BME280;68521;47.822;13.216;2023-03-13T01:59:29;93223.03;;;4.25;79.56
79114;BME280;68521;47.822;13.216;2023-03-13T02:00:20;93232.63;;;4.25;79.56
79114;BME280;68521;47.822;13.216;2023-03-13T02:01:06;93218.06;;;4.24;79.86
79114;BME280;68521;47.822;13.216;2023-03-13T02:01:56;93221.44;;;4.24;79.81
79114;BME280;68521;47.822;13.216;2023-03-13T02:02:46;93218.84;;;4.24;79.77
79114;BME280;68521;47.822;13.216;2023-03-13T02:03:34;93215.47;;;4.24;79.89
79114;BME280;68521;47.822;13.216;2023-03-13T02:04:21;93211.88;;;4.25;80.05
79114;BME280;68521;47.822;13.216;2023-03-13T02:05:07;93211.66;;;4.26;79.92
79114;BME280;68521;47.822;13.216;2023-03-13T02:05:54;93209.06;;;4.26;80.17
79114;BME280;68521;47.822;13.216;2023-03-13T02:06:43;93206.66;;;4.25;80.06
79114;BME280;68521;47.822;13.216;2023-03-13T02:07:36;93209.25;;;4.25;80.00
79114;BME280;68521;47.822;13.216;2023-03-13T02:08:29;93199.88;;;4.24;80.11
79114;BME280;68521;47.822;13.216;2023-03-13T02:09:19;93199.88;;;4.24;80.62
79114;BME280;68521;47.822;13.216;2023-03-13T02:10:06;93206.66;;;4.25;80.66
79114;BME280;68521;47.822;13.216;2023-03-13T02:11:00;93203.28;;;4.24;80.66
79114;BME280;68521;47.822;13.216;2023-03-13T02:11:56;93197.72;;;4.21;80.46
79114;BME280;68521;47.822;13.216;2023-03-13T02:12:44;93197.53;;;4.22;80.26
79114;BME280;68521;47.822;13.216;2023-03-13T02:13:29;93197.53;;;4.22;80.47
79114;BME280;68521;47.822;13.216;2023-03-13T02:14:17;93200.91;;;4.23;80.38
79114;BME280;68521;47.822;13.216;2023-03-13T02:15:13;93198.31;;;4.23;80.22
79114;BME280;68521;47.822;13.216;2023-03-13T02:16:00;93195.13;;;4.21;80.32
79114;BME280;68521;47.822;13.216;2023-03-13T02:16:45;93200.31;;;4.21;80.10
79114;BME280;68521;47.822;13.216;2023-03-13T02:17:33;93194.31;;;4.20;80.31
79114;BME280;68521;47.822;13.216;2023-03-13T02:18:19;93197.53;;;4.22;80.54
79114;BME280;68521;47.822;13.216;2023-03-13T02:19:16;93190.38;;;4.18;80.80
79114;BME280;68521;47.822;13.216;2023-03-13T02:20:03;93198.72;;;4.20;80.67
79114;BME280;68521;47.822;13.216;2023-03-13T02:20:50;93193.53;;;4.20;80.66
79114;BME280;68521;47.822;13.216;2023-03-13T02:21:44;93190.94;;;4.20;80.47
79114;BME280;68521;47.822;13.216;2023-03-13T02:22:58;93193.97;;;4.17;80.72
79114;BME280;68521;47.822;13.216;2023-03-13T02:24:12;93189.19;;;4.14;80.72
79114;BME280;68521;47.822;13.216;2023-03-13T02:25:18;93194.38;;;4.14;80.41
79114;BME280;68521;47.822;13.216;2023-03-13T02:26:06;93194.81;;;4.11;80.13
79114;BME280;68521;47.822;13.216;2023-03-13T02:26:52;93193.03;;;4.11;79.95
79114;BME280;68521;47.822;13.216;2023-03-13T02:27:37;93191.44;;;4.10;79.77
79114;BME280;68521;47.822;13.216;2023-03-13T02:28:26;93187.22;;;4.09;79.11
79114;BME280;68521;47.822;13.216;2023-03-13T02:29:17;93184.88;;;4.08;79.25
79114;BME280;68521;47.822;13.216;2023-03-13T02:30:03;93187.88;;;4.05;79.43
79114;BME280;68521;47.822;13.216;2023-03-13T02:30:50;93189.47;;;4.06;79.60
79114;BME280;68521;47.822;13.216;2023-03-13T02:31:38;93195.66;;;4.05;79.78
79114;BME280;68521;47.822;13.216;2023-03-13T02:32:25;93190.47;;;4.05;80.00
79114;BME280;68521;47.822;13.216;2023-03-13T02:33:15;93190.47;;;4.05;80.31
79114;BME280;68521;47.822;13.216;2023-03-13T02:34:02;93197.47;;;4.04;80.35
79114;BME280;68521;47.822;13.216;2023-03-13T02:34:53;93194.88;;;4.04;80.14
79114;BME280;68521;47.822;13.216;2023-03-13T02:35:41;93194.06;;;4.04;80.21
79114;BME280;68521;47.822;13.216;2023-03-13T02:36:29;93190.13;;;4.01;80.00
79114;BME280;68521;47.822;13.216;2023-03-13T02:37:15;93190.13;;;4.01;79.98
79114;BME280;68521;47.822;13.216;2023-03-13T02:38:04;93191.13;;;4.00;80.00
79114;BME280;68521;47.822;13.216;2023-03-13T02:38:54;93186.91;;;3.99;79.84
79114;BME280;68521;47.822;13.216;2023-03-13T02:39:47;93189.75;;;3.98;79.73
79114;BME280;68521;47.822;13.216;2023-03-13T02:40:37;93188.94;;;3.97;79.66
79114;BME280;68521;47.822;13.216;2023-03-13T02:41:24;93194.34;;;3.96;79.69
79114;BME280;68521;47.822;13.216;2023-03-13T02:42:12;93196.16;;;3.95;79.83
79114;BME280;68521;47.822;13.216;2023-03-13T02:43:00;93202.94;;;3.96;79.83
79114;BME280;68521;47.822;13.216;2023-03-13T02:43:46;93206.53;;;3.95;79.86
79114;BME280;68521;47.822;13.216;2023-03-13T02:44:37;93202.13;;;3.96;80.39
79114;BME280;68521;47.822;13.216;2023-03-13T02:45:22;93195.94;;;3.97;80.38
79114;BME280;68521;47.822;13.216;2023-03-13T02:46:12;93200.13;;;3.98;80.55
79114;BME280;68521;47.822;13.216;2023-03-13T02:46:58;93194.16;;;3.97;80.74
79114;BME280;68521;47.822;13.216;2023-03-13T02:47:43;93193.34;;;3.97;80.49
79114;BME280;68521;47.822;13.216;2023-03-13T02:48:41;93189.97;;;3.96;80.48
79114;BME280;68521;47.822;13.216;2023-03-13T02:49:28;93198.53;;;3.97;80.43
79114;BME280;68521;47.822;13.216;2023-03-13T02:50:14;93190.94;;;3.95;80.42
79114;BME280;68521;47.822;13.216;2023-03-13T02:51:02;93193.34;;;3.97;79.98
79114;BME280;68521;47.822;13.216;2023-03-13T02:51:48;93198.53;;;3.97;79.76
79114;BME280;68521;47.822;13.216;2023-03-13T02:52:40;93194.34;;;3.96;80.02
79114;BME280;68521;47.822;13.216;2023-03-13T02:53:27;93199.75;;;3.94;80.02
79114;BME280;68521;47.822;13.216;2023-03-13T02:54:16;93196.34;;;3.94;80.05
79114;BME280;68521;47.822;13.216;2023-03-13T02:55:05;93190.59;;;3.92;80.06
79114;BME280;68521;47.822;13.216;2023-03-13T02:55:51;93186.97;;;3.93;80.03
79114;BME280;68521;47.822;13.216;2023-03-13T02:56:38;93190.59;;;3.92;79.82
79114;BME280;68521;47.822;13.216;2023-03-13T02:57:24;93193.19;;;3.92;79.83
79114;BME280;68521;47.822;13.216;2023-03-13T02:58:10;93189.00;;;3.91;80.12
79114;BME280;68521;47.822;13.216;2023-03-13T02:58:55;93183.81;;;3.91;79.97
79114;BME280;68521;47.822;13.216;2023-03-13T02:59:40;93190.00;;;3.90;79.99
79114;BME280;68521;47.822;13.216;2023-03-13T03:00:26;93187.41;;;3.90;79.84
79114;BME280;68521;47.822;13.216;2023-03-13T03:01:11;93185.81;;;3.89;80.14
79114;BME280;68521;47.822;13.216;2023-03-13T03:01:57;93190.78;;;3.90;80.21
79114;BME280;68521;47.822;13.216;2023-03-13T03:02:43;93185.59;;;3.90;80.13
79114;BME280;68521;47.822;13.216;2023-03-13T03:03:28;93180.63;;;3.89;80.14
79114;BME280;68521;47.822;13.216;2023-03-13T03:04:13;93180.63;;;3.89;80.17
79114;BME280;68521;47.822;13.216;2023-03-13T03:04:59;93183.00;;;3.90;80.12
79114;BME280;68521;47.822;13.216;2023-03-13T03:05:44;93179.81;;;3.88;80.19
79114;BME280;68521;47.822;13.216;2023-03-13T03:06:29;93171.03;;;3.89;80.04
79114;BME280;68521;47.822;13.216;2023-03-13T03:07:15;93173.63;;;3.89;80.02
79114;BME280;68521;47.822;13.216;2023-03-13T03:08:00;93179.41;;;3.91;80.08
79114;BME280;68521;47.822;13.216;2023-03-13T03:08:45;93174.22;;;3.91;80.08
79114;BME280;68521;47.822;13.216;2023-03-13T03:09:31;93175.03;;;3.92;80.29
79114;BME280;68521;47.822;13.216;2023-03-13T03:10:17;93170.84;;;3.91;80.39
79114;BME280;68521;47.822;13.216;2023-03-13T03:11:04;93174.00;;;3.93;80.62
79114;BME280;68521;47.822;13.216;2023-03-13T03:11:49;93167.81;;;3.94;80.43
79114;BME280;68521;47.822;13.216;2023-03-13T03:12:34;93173.00;;;3.94;80.28
79114;BME280;68521;47.822;13.216;2023-03-13T03:13:20;93175.59;;;3.94;80.40
79114;BME280;68521;47.822;13.216;2023-03-13T03:14:06;93174.59;;;3.95;80.37
79114;BME280;68521;47.822;13.216;2023-03-13T03:14:51;93180.56;;;3.95;80.50
79114;BME280;68521;47.822;13.216;2023-03-13T03:15:37;93173.59;;;3.96;80.84
79114;BME280;68521;47.822;13.216;2023-03-13T03:16:22;93177.78;;;3.97;80.62
79114;BME280;68521;47.822;13.216;2023-03-13T03:17:07;93179.38;;;3.98;80.86
79114;BME280;68521;47.822;13.216;2023-03-13T03:17:53;93181.72;;;3.99;80.83
79114;BME280;68521;47.822;13.216;2023-03-13T03:18:38;93174.75;;;4.00;81.25
79114;BME280;68521;47.822;13.216;2023-03-13T03:19:23;93170.56;;;3.99;81.09
79114;BME280;68521;47.822;13.216;2023-03-13T03:20:09;93178.94;;;4.01;81.08
79114;BME280;68521;47.822;13.216;2023-03-13T03:20:56;93177.13;;;4.01;81.04
79114;BME280;68521;47.822;13.216;2023-03-13T03:21:41;93177.94;;;4.02;81.23
79114;BME280;68521;47.822;13.216;2023-03-13T03:22:27;93181.09;;;4.04;80.92
79114;BME280;68521;47.822;13.216;2023-03-13T03:23:12;93178.50;;;4.04;80.92
79114;BME280;68521;47.822;13.216;2023-03-13T03:23:57;93185.28;;;4.05;81.20
79114;BME280;68521;47.822;13.216;2023-03-13T03:24:43;93193.88;;;4.05;81.39
79114;BME280;68521;47.822;13.216;2023-03-13T03:25:28;93189.25;;;4.07;80.94
79114;BME280;68521;47.822;13.216;2023-03-13T03:26:14;93190.63;;;4.10;81.08
79114;BME280;68521;47.822;13.216;2023-03-13T03:27:00;93188.84;;;4.10;81.12
79114;BME280;68521;47.822;13.216;2023-03-13T03:27:45;93191.22;;;4.12;80.93
79114;BME280;68521;47.822;13.216;2023-03-13T03:28:30;93192.03;;;4.12;81.41
79114;BME280;68521;47.822;13.216;2023-03-13T03:29:16;93185.59;;;4.15;81.00
79114;BME280;68521;47.822;13.216;2023-03-13T03:30:03;93193.19;;;4.16;81.94
79114;BME280;68521;47.822;13.216;2023-03-13T03:30:48;93187.78;;;4.18;82.27
79114;BME280;68521;47.822;13.216;2023-03-13T03:31:33;93189.94;;;4.21;82.11
79114;BME280;68521;47.822;13.216;2023-03-13T03:32:19;93192.31;;;4.22;82.25
79114;BME280;68521;47.822;13.216;2023-03-13T03:33:05;93192.69;;;4.26;82.34
79114;BME280;68521;47.822;13.216;2023-03-13T03:33:50;93192.28;;;4.29;82.13
79114;BME280;68521;47.822;13.216;2023-03-13T03:34:35;93186.84;;;4.31;81.63
79114;BME280;68521;47.822;13.216;2023-03-13T03:35:21;93186.63;;;4.32;81.70
79114;BME280;68521;47.822;13.216;2023-03-13T03:36:09;93184.63;;;4.34;81.57
79114;BME280;68521;47.822;13.216;2023-03-13T03:36:55;93192.00;;;4.37;81.35
79114;BME280;68521;47.822;13.216;2023-03-13T03:37:40;93189.38;;;4.37;81.39
79114;BME280;68521;47.822;13.216;2023-03-13T03:38:25;93188.38;;;4.38;81.21
79114;BME280;68521;47.822;13.216;2023-03-13T03:39:11;93183.19;;;4.38;81.17
79114;BME280;68521;47.822;13.216;2023-03-13T03:39:56;93187.94;;;4.41;80.99
79114;BME280;68521;47.822;13.216;2023-03-13T03:40:41;93181.75;;;4.42;80.89
79114;BME280;68521;47.822;13.216;2023-03-13T03:41:27;93185.94;;;4.43;80.94
79114;BME280;68521;47.822;13.216;2023-03-13T03:42:12;93185.50;;;4.46;80.72
79114;BME280;68521;47.822;13.216;2023-03-13T03:42:57;93183.50;;;4.48;80.86
79114;BME280;68521;47.822;13.216;2023-03-13T03:43:43;93182.50;;;4.49;80.45
79114;BME280;68521;47.822;13.216;2023-03-13T03:44:28;93174.47;;;4.51;80.59
79114;BME280;68521;47.822;13.216;2023-03-13T03:45:13;93176.63;;;4.54;80.57
79114;BME280;68521;47.822;13.216;2023-03-13T03:45:59;93178.00;;;4.56;80.37
79114;BME280;68521;47.822;13.216;2023-03-13T03:46:44;93183.56;;;4.60;80.13
79114;BME280;68521;47.822;13.216;2023-03-13T03:47:30;93175.53;;;4.61;80.28
79114;BME280;68521;47.822;13.216;2023-03-13T03:48:15;93189.13;;;4.63;80.08
79114;BME280;68521;47.822;13.216;2023-03-13T03:49:00;93183.13;;;4.63;80.22
79114;BME280;68521;47.822;13.216;2023-03-13T03:49:46;93180.31;;;4.64;80.07
79114;BME280;68521;47.822;13.216;2023-03-13T03:50:31;93180.31;;;4.64;79.98
79114;BME280;68521;47.822;13.216;2023-03-13T03:51:16;93181.91;;;4.65;79.87
79114;BME280;68521;47.822;13.216;2023-03-13T03:52:02;93181.91;;;4.65;79.82
79114;BME280;68521;47.822;13.216;2023-03-13T03:52:49;93173.53;;;4.63;80.01
79114;BME280;68521;47.822;13.216;2023-03-13T03:53:35;93178.72;;;4.63;80.25
79114;BME280;68521;47.822;13.216;2023-03-13T03:54:20;93173.19;;;4.60;80.26
79114;BME280;68521;47.822;13.216;2023-03-13T03:55:06;93178.72;;;4.63;80.30
79114;BME280;68521;47.822;13.216;2023-03-13T03:55:51;93177.94;;;4.63;80.39
79114;BME280;68521;47.822;13.216;2023-03-13T03:56:37;93168.34;;;4.63;80.10
79114;BME280;68521;47.822;13.216;2023-03-13T03:57:23;93171.72;;;4.64;80.16
79114;BME280;68521;47.822;13.216;2023-03-13T03:58:09;93171.72;;;4.64;80.37
79114;BME280;68521;47.822;13.216;2023-03-13T03:58:54;93165.75;;;4.63;80.38
79114;BME280;68521;47.822;13.216;2023-03-13T03:59:39;93168.56;;;4.62;80.56
79114;BME280;68521;47.822;13.216;2023-03-13T04:00:25;93169.13;;;4.64;80.43
79114;BME280;68521;47.822;13.216;2023-03-13T04:01:11;93163.72;;;4.65;80.12
79114;BME280;68521;47.822;13.216;2023-03-13T04:01:57;93162.34;;;4.63;80.28
79114;BME280;68521;47.822;13.216;2023-03-13T04:02:42;93161.13;;;4.65;79.98
79114;BME280;68521;47.822;13.216;2023-03-13T04:03:27;93169.50;;;4.67;80.16
79114;BME280;68521;47.822;13.216;2023-03-13T04:04:13;93167.91;;;4.66;79.97
79114;BME280;68521;47.822;13.216;2023-03-13T04:04:58;93172.88;;;4.68;80.04
79114;BME280;68521;47.822;13.216;2023-03-13T04:05:43;93174.47;;;4.69;80.05
79114;BME280;68521;47.822;13.216;2023-03-13T04:06:29;93171.09;;;4.68;80.32
79114;BME280;68521;47.822;13.216;2023-03-13T04:07:14;93168.47;;;4.68;80.17
79114;BME280;68521;47.822;13.216;2023-03-13T04:08:00;93166.47;;;4.71;80.02
79114;BME280;68521;47.822;13.216;2023-03-13T04:08:45;93173.47;;;4.70;79.89
79114;BME280;68521;47.822;13.216;2023-03-13T04:09:30;93173.47;;;4.70;79.77
79114;BME280;68521;47.822;13.216;2023-03-13T04:10:16;93172.69;;;4.69;79.95
79114;BME280;68521;47.822;13.216;2023-03-13T04:11:01;93177.06;;;4.69;80.16
79114;BME280;68521;47.822;13.216;2023-03-13T04:11:47;93176.28;;;4.68;79.97
79114;BME280;68521;47.822;13.216;2023-03-13T04:12:32;93176.88;;;4.71;80.24
79114;BME280;68521;47.822;13.216;2023-03-13T04:13:18;93174.47;;;4.69;79.83